sensor_id;sensor_type;location;lat;lon;timestamp;pressure;altitude;pressure_sealevel;temperature;humidity
6200;BME280;3133;43.214;27.906;2023-08-07T00:01:14;99632.56;;;23.36;100.00
6200;BME280;3133;43.214;27.906;2023-08-07T00:03:43;99563.47;;;23.08;100.00
6200;BME280;3133;43.214;27.906;2023-08-07T00:06:10;99627.25;;;23.36;100.00
6200;BME280;3133;43.214;27.906;2023-08-07T00:08:37;99629.91;;;23.36;100.00
6200;BME280;3133;43.214;27.906;2023-08-07T00:11:07;99627.66;;;23.16;100.00
6200;BME280;3133;43.214;27.906;2023-08-07T00:13:34;99632.13;;;23.15;100.00
6200;BME280;3133;43.214;27.906;2023-08-07T00:16:01;99628.94;;;23.10;100.00
6200;BME280;3133;43.214;27.906;2023-08-07T00:18:29;99493.31;;;22.43;100.00
6200;BME280;3133;43.214;27.906;2023-08-07T00:20:57;99634.47;;;23.20;100.00
6200;BME280;3133;43.214;27.906;2023-08-07T00:23:25;99581.03;;;22.83;100.00
6200;BME280;3133;43.214;27.906;2023-08-07T00:25:52;99632.34;;;23.12;100.00
6200;BME280;3133;43.214;27.906;2023-08-07T00:28:19;99610.78;;;23.03;100.00
6200;BME280;3133;43.214;27.906;2023-08-07T00:30:46;99627.34;;;23.20;100.00
6200;BME280;3133;43.214;27.906;2023-08-07T00:33:13;99630.47;;;23.27;100.00
6200;BME280;3133;43.214;27.906;2023-08-07T00:35:40;99627.31;;;23.34;100.00
6200;BME280;3133;43.214;27.906;2023-08-07T00:38:08;99626.25;;;23.37;100.00
6200;BME280;3133;43.214;27.906;2023-08-07T00:40:38;99581.69;;;23.14;100.00
6200;BME280;3133;43.214;27.906;2023-08-07T00:43:06;99635.44;;;23.45;100.00
6200;BME280;3133;43.214;27.906;2023-08-07T00:45:36;99627.25;;;23.36;100.00
6200;BME280;3133;43.214;27.906;2023-08-07T00:48:04;99645.69;;;23.51;100.00
6200;BME280;3133;43.214;27.906;2023-08-07T00:50:32;99643.78;;;23.53;100.00
6200;BME280;3133;43.214;27.906;2023-08-07T00:52:59;99652.53;;;23.55;100.00
6200;BME280;3133;43.214;27.906;2023-08-07T00:55:29;99533.16;;;22.83;100.00
6200;BME280;3133;43.214;27.906;2023-08-07T00:57:57;99513.00;;;22.67;100.00
6200;BME280;3133;43.214;27.906;2023-08-07T01:00:25;99653.84;;;23.36;100.00
6200;BME280;3133;43.214;27.906;2023-08-07T01:02:54;99580.00;;;22.86;100.00
6200;BME280;3133;43.214;27.906;2023-08-07T01:05:23;99666.00;;;23.26;100.00
6200;BME280;3133;43.214;27.906;2023-08-07T01:07:52;99660.50;;;23.29;100.00
6200;BME280;3133;43.214;27.906;2023-08-07T01:10:25;99668.38;;;23.30;100.00
6200;BME280;3133;43.214;27.906;2023-08-07T01:13:05;99669.53;;;23.26;100.00
6200;BME280;3133;43.214;27.906;2023-08-07T01:15:35;99670.28;;;23.28;100.00
6200;BME280;3133;43.214;27.906;2023-08-07T01:18:06;99500.88;;;22.22;100.00
6200;BME280;3133;43.214;27.906;2023-08-07T01:20:34;99623.28;;;22.88;100.00
6200;BME280;3133;43.214;27.906;2023-08-07T01:23:02;99665.59;;;23.19;100.00
6200;BME280;3133;43.214;27.906;2023-08-07T01:25:29;99571.78;;;22.62;100.00
6200;BME280;3133;43.214;27.906;2023-08-07T01:28:02;99687.00;;;23.30;100.00
6200;BME280;3133;43.214;27.906;2023-08-07T01:30:33;99695.69;;;23.34;100.00
6200;BME280;3133;43.214;27.906;2023-08-07T01:33:07;99695.09;;;23.29;100.00
6200;BME280;3133;43.214;27.906;2023-08-07T01:35:41;99668.91;;;22.82;100.00
6200;BME280;3133;43.214;27.906;2023-08-07T01:38:11;99696.59;;;22.92;100.00
6200;BME280;3133;43.214;27.906;2023-08-07T01:40:39;99679.94;;;22.62;100.00
6200;BME280;3133;43.214;27.906;2023-08-07T01:43:07;99594.91;;;22.20;100.00
6200;BME280;3133;43.214;27.906;2023-08-07T01:45:34;99675.47;;;22.62;100.00
6200;BME280;3133;43.214;27.906;2023-08-07T01:48:01;99714.56;;;22.74;100.00
6200;BME280;3133;43.214;27.906;2023-08-07T01:50:28;99687.16;;;22.60;100.00
6200;BME280;3133;43.214;27.906;2023-08-07T01:52:56;99719.41;;;22.68;100.00
6200;BME280;3133;43.214;27.906;2023-08-07T01:55:24;99625.81;;;22.21;100.00
6200;BME280;3133;43.214;27.906;2023-08-07T01:57:51;99734.59;;;22.66;100.00
6200;BME280;3133;43.214;27.906;2023-08-07T02:00:18;99667.00;;;22.28;100.00
6200;BME280;3133;43.214;27.906;2023-08-07T02:02:45;99734.13;;;22.59;100.00
6200;BME280;3133;43.214;27.906;2023-08-07T02:05:13;99730.16;;;22.66;100.00
6200;BME280;3133;43.214;27.906;2023-08-07T02:07:40;99735.28;;;22.69;100.00
6200;BME280;3133;43.214;27.906;2023-08-07T02:10:08;99741.66;;;22.67;100.00
6200;BME280;3133;43.214;27.906;2023-08-07T02:12:36;99568.44;;;21.46;100.00
6200;BME280;3133;43.214;27.906;2023-08-07T02:15:04;99736.59;;;22.48;100.00
6200;BME280;3133;43.214;27.906;2023-08-07T02:17:31;99742.84;;;22.47;100.00
6200;BME280;3133;43.214;27.906;2023-08-07T02:19:58;99748.44;;;22.43;100.00
6200;BME280;3133;43.214;27.906;2023-08-07T02:22:25;99727.34;;;22.26;100.00
6200;BME280;3133;43.214;27.906;2023-08-07T02:24:52;99743.88;;;22.31;100.00
6200;BME280;3133;43.214;27.906;2023-08-07T02:27:19;99740.13;;;22.19;100.00
6200;BME280;3133;43.214;27.906;2023-08-07T02:29:47;99740.63;;;22.26;100.00
6200;BME280;3133;43.214;27.906;2023-08-07T02:32:14;99750.97;;;22.16;100.00
6200;BME280;3133;43.214;27.906;2023-08-07T02:34:41;99748.97;;;22.20;100.00
6200;BME280;3133;43.214;27.906;2023-08-07T02:37:08;99711.19;;;22.00;100.00
6200;BME280;3133;43.214;27.906;2023-08-07T02:39:34;99741.38;;;22.13;100.00
6200;BME280;3133;43.214;27.906;2023-08-07T02:42:01;99744.63;;;21.89;100.00
6200;BME280;3133;43.214;27.906;2023-08-07T02:44:28;99747.28;;;21.89;100.00
6200;BME280;3133;43.214;27.906;2023-08-07T02:46:57;99757.63;;;21.93;100.00
6200;BME280;3133;43.214;27.906;2023-08-07T02:49:24;99767.63;;;22.04;100.00
6200;BME280;3133;43.214;27.906;2023-08-07T02:51:51;99768.47;;;22.04;100.00
6200;BME280;3133;43.214;27.906;2023-08-07T02:54:18;99751.91;;;21.85;100.00
6200;BME280;3133;43.214;27.906;2023-08-07T02:56:45;99775.44;;;21.91;100.00
6200;BME280;3133;43.214;27.906;2023-08-07T02:59:12;99766.06;;;21.86;100.00
6200;BME280;3133;43.214;27.906;2023-08-07T03:01:39;99771.75;;;21.94;100.00
6200;BME280;3133;43.214;27.906;2023-08-07T03:04:07;99759.13;;;21.83;100.00
6200;BME280;3133;43.214;27.906;2023-08-07T03:06:36;99774.41;;;21.78;100.00
6200;BME280;3133;43.214;27.906;2023-08-07T03:09:03;99641.75;;;21.02;100.00
6200;BME280;3133;43.214;27.906;2023-08-07T03:11:30;99776.56;;;21.87;100.00
6200;BME280;3133;43.214;27.906;2023-08-07T03:13:56;99777.94;;;21.79;100.00
6200;BME280;3133;43.214;27.906;2023-08-07T03:16:23;99784.97;;;21.64;100.00
6200;BME280;3133;43.214;27.906;2023-08-07T03:18:51;99786.16;;;21.74;100.00
6200;BME280;3133;43.214;27.906;2023-08-07T03:21:20;99715.53;;;21.11;100.00
6200;BME280;3133;43.214;27.906;2023-08-07T03:23:46;99799.69;;;21.70;100.00
6200;BME280;3133;43.214;27.906;2023-08-07T03:26:13;99784.53;;;21.72;100.00
6200;BME280;3133;43.214;27.906;2023-08-07T03:28:40;99794.72;;;21.79;100.00
6200;BME280;3133;43.214;27.906;2023-08-07T03:31:07;99782.56;;;21.75;100.00
6200;BME280;3133;43.214;27.906;2023-08-07T03:33:34;99665.16;;;21.11;100.00
6200;BME280;3133;43.214;27.906;2023-08-07T03:36:01;99804.00;;;21.88;100.00
6200;BME280;3133;43.214;27.906;2023-08-07T03:38:30;99809.78;;;21.79;100.00
6200;BME280;3133;43.214;27.906;2023-08-07T03:40:56;99775.41;;;21.62;100.00
6200;BME280;3133;43.214;27.906;2023-08-07T03:43:23;99812.78;;;21.88;100.00
6200;BME280;3133;43.214;27.906;2023-08-07T03:45:54;99814.75;;;21.69;100.00
6200;BME280;3133;43.214;27.906;2023-08-07T03:48:21;99817.94;;;21.60;100.00
6200;BME280;3133;43.214;27.906;2023-08-07T03:50:48;99822.81;;;21.68;100.00
6200;BME280;3133;43.214;27.906;2023-08-07T03:53:15;99808.78;;;21.66;100.00
6200;BME280;3133;43.214;27.906;2023-08-07T03:55:49;99818.28;;;21.70;100.00
6200;BME280;3133;43.214;27.906;2023-08-07T03:58:17;99818.94;;;21.73;100.00
6200;BME280;3133;43.214;27.906;2023-08-07T04:00:44;99800.81;;;21.50;100.00
6200;BME280;3133;43.214;27.906;2023-08-07T04:03:10;99814.19;;;21.64;100.00
6200;BME280;3133;43.214;27.906;2023-08-07T04:05:38;99821.53;;;21.59;100.00
6200;BME280;3133;43.214;27.906;2023-08-07T04:08:05;99821.94;;;21.67;100.00
6200;BME280;3133;43.214;27.906;2023-08-07T04:10:32;99820.94;;;21.70;100.00
6200;BME280;3133;43.214;27.906;2023-08-07T04:13:00;99829.16;;;21.65;100.00
6200;BME280;3133;43.214;27.906;2023-08-07T04:15:27;99805.09;;;21.53;100.00
6200;BME280;3133;43.214;27.906;2023-08-07T04:17:54;99823.16;;;21.62;100.00
6200;BME280;3133;43.214;27.906;2023-08-07T04:20:21;99809.28;;;21.57;100.00
6200;BME280;3133;43.214;27.906;2023-08-07T04:22:48;99819.22;;;21.69;100.00
6200;BME280;3133;43.214;27.906;2023-08-07T04:25:15;99821.78;;;21.70;100.00
6200;BME280;3133;43.214;27.906;2023-08-07T04:27:43;99828.03;;;21.69;100.00
6200;BME280;3133;43.214;27.906;2023-08-07T04:30:12;99836.94;;;21.68;100.00
6200;BME280;3133;43.214;27.906;2023-08-07T04:32:39;99808.38;;;21.58;100.00
6200;BME280;3133;43.214;27.906;2023-08-07T04:35:07;99721.16;;;21.05;100.00
6200;BME280;3133;43.214;27.906;2023-08-07T04:37:34;99837.97;;;21.81;100.00
6200;BME280;3133;43.214;27.906;2023-08-07T04:40:01;99798.78;;;21.55;100.00
6200;BME280;3133;43.214;27.906;2023-08-07T04:42:30;99823.69;;;21.84;100.00
6200;BME280;3133;43.214;27.906;2023-08-07T04:44:58;99715.00;;;21.20;100.00
6200;BME280;3133;43.214;27.906;2023-08-07T04:47:28;99854.22;;;22.06;100.00
6200;BME280;3133;43.214;27.906;2023-08-07T04:49:55;99855.34;;;22.02;100.00
6200;BME280;3133;43.214;27.906;2023-08-07T04:52:22;99852.81;;;22.01;100.00
6200;BME280;3133;43.214;27.906;2023-08-07T04:54:49;99700.63;;;21.08;100.00
6200;BME280;3133;43.214;27.906;2023-08-07T04:57:16;99734.81;;;21.44;100.00
6200;BME280;3133;43.214;27.906;2023-08-07T04:59:42;99840.63;;;21.97;100.00
6200;BME280;3133;43.214;27.906;2023-08-07T05:02:09;99696.16;;;20.93;100.00
6200;BME280;3133;43.214;27.906;2023-08-07T05:04:38;99746.66;;;21.38;100.00
6200;BME280;3133;43.214;27.906;2023-08-07T05:07:05;99795.44;;;21.83;100.00
6200;BME280;3133;43.214;27.906;2023-08-07T05:09:32;99734.81;;;21.60;100.00
6200;BME280;3133;43.214;27.906;2023-08-07T05:11:59;99853.34;;;22.22;100.00
6200;BME280;3133;43.214;27.906;2023-08-07T05:14:26;99884.16;;;22.40;100.00
6200;BME280;3133;43.214;27.906;2023-08-07T05:16:52;99878.84;;;22.40;100.00
6200;BME280;3133;43.214;27.906;2023-08-07T05:19:19;99791.47;;;21.90;100.00
6200;BME280;3133;43.214;27.906;2023-08-07T05:21:48;99755.84;;;21.78;100.00
6200;BME280;3133;43.214;27.906;2023-08-07T05:24:16;99845.00;;;22.28;100.00
6200;BME280;3133;43.214;27.906;2023-08-07T05:26:43;99764.72;;;21.93;100.00
6200;BME280;3133;43.214;27.906;2023-08-07T05:29:10;99757.63;;;21.93;100.00
6200;BME280;3133;43.214;27.906;2023-08-07T05:31:37;99898.53;;;22.81;100.00
6200;BME280;3133;43.214;27.906;2023-08-07T05:34:04;99850.06;;;22.62;100.00
6200;BME280;3133;43.214;27.906;2023-08-07T05:36:32;99773.16;;;22.29;100.00
6200;BME280;3133;43.214;27.906;2023-08-07T05:39:00;99764.47;;;22.41;100.00
6200;BME280;3133;43.214;27.906;2023-08-07T05:41:27;99900.22;;;23.40;100.00
6200;BME280;3133;43.214;27.906;2023-08-07T05:43:55;99865.50;;;23.13;100.00
6200;BME280;3133;43.214;27.906;2023-08-07T05:46:22;99774.84;;;23.02;100.00
6200;BME280;3133;43.214;27.906;2023-08-07T05:48:49;99807.19;;;23.92;100.00
6200;BME280;3133;43.214;27.906;2023-08-07T05:51:16;99877.09;;;25.13;100.00
6200;BME280;3133;43.214;27.906;2023-08-07T05:53:45;99875.09;;;25.78;100.00
6200;BME280;3133;43.214;27.906;2023-08-07T05:56:13;99868.63;;;25.93;100.00
6200;BME280;3133;43.214;27.906;2023-08-07T05:58:40;99848.47;;;26.13;100.00
6200;BME280;3133;43.214;27.906;2023-08-07T06:01:07;99925.50;;;26.90;100.00
6200;BME280;3133;43.214;27.906;2023-08-07T06:03:33;99843.53;;;26.54;100.00
6200;BME280;3133;43.214;27.906;2023-08-07T06:06:00;99920.38;;;26.63;100.00
6200;BME280;3133;43.214;27.906;2023-08-07T06:08:27;99874.50;;;26.56;100.00
6200;BME280;3133;43.214;27.906;2023-08-07T06:10:54;99937.25;;;27.22;100.00
6200;BME280;3133;43.214;27.906;2023-08-07T06:13:23;99936.28;;;27.34;100.00
6200;BME280;3133;43.214;27.906;2023-08-07T06:15:50;99945.09;;;27.58;100.00
6200;BME280;3133;43.214;27.906;2023-08-07T06:18:17;99927.66;;;27.86;100.00
6200;BME280;3133;43.214;27.906;2023-08-07T06:20:43;99943.63;;;28.09;100.00
6200;BME280;3133;43.214;27.906;2023-08-07T06:23:10;99822.31;;;27.30;100.00
6200;BME280;3133;43.214;27.906;2023-08-07T06:25:37;99936.34;;;27.78;100.00
6200;BME280;3133;43.214;27.906;2023-08-07T06:28:04;99920.22;;;27.34;100.00
6200;BME280;3133;43.214;27.906;2023-08-07T06:30:32;99923.88;;;27.33;100.00
6200;BME280;3133;43.214;27.906;2023-08-07T06:33:00;99801.06;;;27.40;100.00
6200;BME280;3133;43.214;27.906;2023-08-07T06:35:26;99925.03;;;27.53;100.00
6200;BME280;3133;43.214;27.906;2023-08-07T06:37:53;99950.09;;;28.07;100.00
6200;BME280;3133;43.214;27.906;2023-08-07T06:40:20;99927.06;;;27.82;100.00
6200;BME280;3133;43.214;27.906;2023-08-07T06:42:47;99915.41;;;27.61;100.00
6200;BME280;3133;43.214;27.906;2023-08-07T06:45:14;99947.06;;;27.67;100.00
6200;BME280;3133;43.214;27.906;2023-08-07T06:47:42;99945.78;;;27.27;100.00
6200;BME280;3133;43.214;27.906;2023-08-07T06:50:11;99961.16;;;27.36;100.00
6200;BME280;3133;43.214;27.906;2023-08-07T06:52:40;99945.19;;;27.34;100.00
6200;BME280;3133;43.214;27.906;2023-08-07T06:55:07;99929.72;;;27.27;100.00
6200;BME280;3133;43.214;27.906;2023-08-07T06:57:34;99946.56;;;27.62;100.00
6200;BME280;3133;43.214;27.906;2023-08-07T07:00:02;99934.75;;;27.87;100.00
6200;BME280;3133;43.214;27.906;2023-08-07T07:02:29;99943.78;;;27.42;100.00
6200;BME280;3133;43.214;27.906;2023-08-07T07:04:57;99937.44;;;27.54;100.00
6200;BME280;3133;43.214;27.906;2023-08-07T07:07:24;99955.88;;;27.23;100.00
6200;BME280;3133;43.214;27.906;2023-08-07T07:09:51;99923.59;;;27.03;100.00
6200;BME280;3133;43.214;27.906;2023-08-07T07:12:18;99945.59;;;27.41;100.00
6200;BME280;3133;43.214;27.906;2023-08-07T07:14:45;99942.47;;;27.12;100.00
6200;BME280;3133;43.214;27.906;2023-08-07T07:17:11;99943.03;;;27.40;100.00
6200;BME280;3133;43.214;27.906;2023-08-07T07:19:38;99959.59;;;27.56;100.00
6200;BME280;3133;43.214;27.906;2023-08-07T07:22:07;99933.97;;;27.18;100.00
6200;BME280;3133;43.214;27.906;2023-08-07T07:24:33;99956.25;;;27.30;100.00
6200;BME280;3133;43.214;27.906;2023-08-07T07:27:00;99985.56;;;27.77;100.00
6200;BME280;3133;43.214;27.906;2023-08-07T07:29:27;99979.59;;;27.85;100.00
6200;BME280;3133;43.214;27.906;2023-08-07T07:31:54;99972.91;;;28.13;100.00
6200;BME280;3133;43.214;27.906;2023-08-07T07:34:23;99879.41;;;27.75;100.00
6200;BME280;3133;43.214;27.906;2023-08-07T07:36:52;99993.44;;;28.88;100.00
6200;BME280;3133;43.214;27.906;2023-08-07T07:39:21;99996.66;;;29.03;100.00
6200;BME280;3133;43.214;27.906;2023-08-07T07:41:47;99862.84;;;28.35;100.00
6200;BME280;3133;43.214;27.906;2023-08-07T07:44:14;99854.13;;;28.22;100.00
6200;BME280;3133;43.214;27.906;2023-08-07T07:46:41;99965.47;;;28.59;100.00
6200;BME280;3133;43.214;27.906;2023-08-07T07:49:10;99831.09;;;27.32;100.00
6200;BME280;3133;43.214;27.906;2023-08-07T07:51:37;99998.13;;;28.21;100.00
6200;BME280;3133;43.214;27.906;2023-08-07T07:54:05;99984.59;;;27.89;100.00
6200;BME280;3133;43.214;27.906;2023-08-07T07:56:34;99988.75;;;28.04;100.00
6200;BME280;3133;43.214;27.906;2023-08-07T07:59:00;99979.47;;;28.20;100.00
6200;BME280;3133;43.214;27.906;2023-08-07T08:01:28;99965.22;;;28.08;100.00
6200;BME280;3133;43.214;27.906;2023-08-07T08:03:54;99991.38;;;28.27;96.89
6200;BME280;3133;43.214;27.906;2023-08-07T08:06:21;99987.38;;;28.32;97.78
6200;BME280;3133;43.214;27.906;2023-08-07T08:08:48;100010.53;;;27.89;96.30
6200;BME280;3133;43.214;27.906;2023-08-07T08:11:15;99982.03;;;28.10;97.33
6200;BME280;3133;43.214;27.906;2023-08-07T08:13:44;100016.97;;;28.31;93.82
6200;BME280;3133;43.214;27.906;2023-08-07T08:16:11;99928.53;;;27.64;98.99
6200;BME280;3133;43.214;27.906;2023-08-07T08:18:39;99996.03;;;28.25;97.66
6200;BME280;3133;43.214;27.906;2023-08-07T08:21:06;99974.47;;;28.15;96.63
6200;BME280;3133;43.214;27.906;2023-08-07T08:23:33;99893.91;;;27.83;95.41
6200;BME280;3133;43.214;27.906;2023-08-07T08:26:01;99993.53;;;28.44;93.64
6200;BME280;3133;43.214;27.906;2023-08-07T08:28:28;99923.91;;;27.99;91.17
6200;BME280;3133;43.214;27.906;2023-08-07T08:30:59;100003.06;;;28.59;89.83
6200;BME280;3133;43.214;27.906;2023-08-07T08:33:29;99998.69;;;28.58;92.22
6200;BME280;3133;43.214;27.906;2023-08-07T08:35:59;99879.16;;;27.89;95.39
6200;BME280;3133;43.214;27.906;2023-08-07T08:38:25;99999.28;;;28.39;90.10
6200;BME280;3133;43.214;27.906;2023-08-07T08:41:00;99955.69;;;28.15;89.88
6200;BME280;3133;43.214;27.906;2023-08-07T08:43:34;100005.88;;;28.46;94.47
6200;BME280;3133;43.214;27.906;2023-08-07T08:46:04;100007.97;;;28.43;94.49
6200;BME280;3133;43.214;27.906;2023-08-07T08:48:34;99982.53;;;28.15;96.66
6200;BME280;3133;43.214;27.906;2023-08-07T08:51:04;99984.06;;;28.29;96.35
6200;BME280;3133;43.214;27.906;2023-08-07T08:53:32;99853.50;;;27.64;94.04
6200;BME280;3133;43.214;27.906;2023-08-07T08:56:00;99906.22;;;27.97;90.76
6200;BME280;3133;43.214;27.906;2023-08-07T08:58:27;100014.41;;;28.62;95.85
6200;BME280;3133;43.214;27.906;2023-08-07T09:00:55;99915.59;;;27.91;98.17
6200;BME280;3133;43.214;27.906;2023-08-07T09:03:25;100026.72;;;28.54;93.23
6200;BME280;3133;43.214;27.906;2023-08-07T09:05:53;99997.84;;;28.24;94.67
6200;BME280;3133;43.214;27.906;2023-08-07T09:08:22;100028.34;;;28.34;98.44
6200;BME280;3133;43.214;27.906;2023-08-07T09:10:49;100005.69;;;28.16;100.00
6200;BME280;3133;43.214;27.906;2023-08-07T09:13:20;100030.88;;;28.47;92.34
6200;BME280;3133;43.214;27.906;2023-08-07T09:15:50;99975.66;;;28.33;93.42
6200;BME280;3133;43.214;27.906;2023-08-07T09:18:17;99995.72;;;28.50;92.15
6200;BME280;3133;43.214;27.906;2023-08-07T09:20:47;99987.00;;;28.37;93.91
6200;BME280;3133;43.214;27.906;2023-08-07T09:23:15;99979.97;;;28.56;95.28
6200;BME280;3133;43.214;27.906;2023-08-07T09:25:44;100015.09;;;28.75;97.69
6200;BME280;3133;43.214;27.906;2023-08-07T09:28:12;100018.88;;;28.73;96.62
6200;BME280;3133;43.214;27.906;2023-08-07T09:30:38;100013.50;;;28.73;98.29
6200;BME280;3133;43.214;27.906;2023-08-07T09:33:09;99972.50;;;28.28;100.00
6200;BME280;3133;43.214;27.906;2023-08-07T09:35:37;99887.34;;;27.87;97.49
6200;BME280;3133;43.214;27.906;2023-08-07T09:38:07;100037.09;;;28.58;96.20
6200;BME280;3133;43.214;27.906;2023-08-07T09:40:34;99928.25;;;28.12;92.92
6200;BME280;3133;43.214;27.906;2023-08-07T09:43:01;100027.31;;;28.68;94.33
6200;BME280;3133;43.214;27.906;2023-08-07T09:45:28;100025.34;;;28.70;90.76
6200;BME280;3133;43.214;27.906;2023-08-07T09:47:59;100043.44;;;28.57;86.37
6200;BME280;3133;43.214;27.906;2023-08-07T09:50:26;99993.44;;;28.45;87.09
6200;BME280;3133;43.214;27.906;2023-08-07T09:52:54;100020.06;;;28.80;87.29
6200;BME280;3133;43.214;27.906;2023-08-07T09:55:23;100030.03;;;28.89;86.63
6200;BME280;3133;43.214;27.906;2023-08-07T09:57:50;100017.59;;;28.88;88.21
6200;BME280;3133;43.214;27.906;2023-08-07T10:00:18;100024.84;;;28.76;83.84
6200;BME280;3133;43.214;27.906;2023-08-07T10:02:47;99984.41;;;28.57;84.87
6200;BME280;3133;43.214;27.906;2023-08-07T10:05:17;100027.66;;;28.75;84.77
6200;BME280;3133;43.214;27.906;2023-08-07T10:07:45;99927.72;;;28.29;80.97
6200;BME280;3133;43.214;27.906;2023-08-07T10:10:14;99906.69;;;28.13;80.67
6200;BME280;3133;43.214;27.906;2023-08-07T10:12:42;100022.06;;;28.99;81.56
6200;BME280;3133;43.214;27.906;2023-08-07T10:15:11;99986.78;;;28.71;79.79
6200;BME280;3133;43.214;27.906;2023-08-07T10:17:39;100007.44;;;28.92;81.22
6200;BME280;3133;43.214;27.906;2023-08-07T10:20:10;100044.50;;;29.09;76.86
6200;BME280;3133;43.214;27.906;2023-08-07T10:22:38;99887.91;;;28.13;73.15
6200;BME280;3133;43.214;27.906;2023-08-07T10:25:06;100040.56;;;28.81;75.50
6200;BME280;3133;43.214;27.906;2023-08-07T10:27:37;99909.25;;;28.15;75.06
6200;BME280;3133;43.214;27.906;2023-08-07T10:30:09;100035.13;;;29.03;79.13
6200;BME280;3133;43.214;27.906;2023-08-07T10:32:38;100009.03;;;28.94;81.71
6200;BME280;3133;43.214;27.906;2023-08-07T10:35:06;99930.56;;;28.59;79.84
6200;BME280;3133;43.214;27.906;2023-08-07T10:37:38;99968.13;;;28.70;84.63
6200;BME280;3133;43.214;27.906;2023-08-07T10:40:07;99923.00;;;28.64;86.36
6200;BME280;3133;43.214;27.906;2023-08-07T10:42:51;99957.91;;;28.84;79.37
6200;BME280;3133;43.214;27.906;2023-08-07T10:45:20;100042.25;;;29.25;81.14
6200;BME280;3133;43.214;27.906;2023-08-07T10:47:57;99846.69;;;28.14;77.75
6200;BME280;3133;43.214;27.906;2023-08-07T10:50:28;100039.34;;;29.17;80.08
6200;BME280;3133;43.214;27.906;2023-08-07T10:52:55;99986.34;;;28.87;83.59
6200;BME280;3133;43.214;27.906;2023-08-07T10:55:22;99998.56;;;29.12;81.81
6200;BME280;3133;43.214;27.906;2023-08-07T10:57:50;100032.34;;;29.25;73.67
6200;BME280;3133;43.214;27.906;2023-08-07T11:00:26;99891.94;;;28.39;77.08
6200;BME280;3133;43.214;27.906;2023-08-07T11:02:53;99926.06;;;28.59;77.81
6200;BME280;3133;43.214;27.906;2023-08-07T11:05:20;99939.81;;;28.66;72.90
6200;BME280;3133;43.214;27.906;2023-08-07T11:07:47;99930.81;;;28.67;76.88
6200;BME280;3133;43.214;27.906;2023-08-07T11:10:14;99887.78;;;28.46;72.54
6200;BME280;3133;43.214;27.906;2023-08-07T11:12:43;100041.69;;;29.42;74.97
6200;BME280;3133;43.214;27.906;2023-08-07T11:15:12;100017.53;;;29.31;74.86
6200;BME280;3133;43.214;27.906;2023-08-07T11:17:42;100047.69;;;29.34;71.32
6200;BME280;3133;43.214;27.906;2023-08-07T11:20:10;100052.16;;;29.45;70.04
6200;BME280;3133;43.214;27.906;2023-08-07T11:22:38;99942.41;;;28.88;65.88
6200;BME280;3133;43.214;27.906;2023-08-07T11:25:07;99961.22;;;28.88;70.13
6200;BME280;3133;43.214;27.906;2023-08-07T11:27:39;100026.66;;;29.39;69.95
6200;BME280;3133;43.214;27.906;2023-08-07T11:30:11;99981.69;;;29.21;69.15
6200;BME280;3133;43.214;27.906;2023-08-07T11:32:39;99986.94;;;29.22;70.81
6200;BME280;3133;43.214;27.906;2023-08-07T11:35:12;100006.97;;;29.39;70.44
6200;BME280;3133;43.214;27.906;2023-08-07T11:37:45;99960.03;;;29.02;67.87
6200;BME280;3133;43.214;27.906;2023-08-07T11:40:13;100043.63;;;29.61;69.77
6200;BME280;3133;43.214;27.906;2023-08-07T11:42:41;100033.59;;;29.63;70.99
6200;BME280;3133;43.214;27.906;2023-08-07T11:45:08;99878.88;;;28.77;62.87
6200;BME280;3133;43.214;27.906;2023-08-07T11:47:36;99959.59;;;29.17;64.62
6200;BME280;3133;43.214;27.906;2023-08-07T11:50:09;100041.25;;;29.67;64.84
6200;BME280;3133;43.214;27.906;2023-08-07T11:52:38;100037.66;;;29.78;63.35
6200;BME280;3133;43.214;27.906;2023-08-07T11:55:06;99962.72;;;29.43;62.23
6200;BME280;3133;43.214;27.906;2023-08-07T11:57:38;100019.72;;;29.88;64.16
6200;BME280;3133;43.214;27.906;2023-08-07T12:00:09;100025.56;;;29.93;66.76
6200;BME280;3133;43.214;27.906;2023-08-07T12:02:45;99986.88;;;29.84;63.44
6200;BME280;3133;43.214;27.906;2023-08-07T12:05:20;99996.94;;;29.92;62.11
6200;BME280;3133;43.214;27.906;2023-08-07T12:07:50;99982.63;;;29.61;60.45
6200;BME280;3133;43.214;27.906;2023-08-07T12:10:25;100008.16;;;29.97;60.32
6200;BME280;3133;43.214;27.906;2023-08-07T12:12:59;99968.38;;;29.70;61.55
6200;BME280;3133;43.214;27.906;2023-08-07T12:15:31;99941.72;;;29.57;62.41
6200;BME280;3133;43.214;27.906;2023-08-07T12:18:02;100024.44;;;29.95;63.30
6200;BME280;3133;43.214;27.906;2023-08-07T12:20:30;99909.28;;;29.19;59.25
6200;BME280;3133;43.214;27.906;2023-08-07T12:22:57;99933.25;;;29.32;57.39
6200;BME280;3133;43.214;27.906;2023-08-07T12:25:24;99908.88;;;29.24;54.70
6200;BME280;3133;43.214;27.906;2023-08-07T12:27:51;99984.56;;;29.49;56.19
6200;BME280;3133;43.214;27.906;2023-08-07T12:30:18;100018.34;;;29.73;56.06
6200;BME280;3133;43.214;27.906;2023-08-07T12:32:45;100021.53;;;29.78;53.58
6200;BME280;3133;43.214;27.906;2023-08-07T12:35:11;100012.34;;;29.80;53.55
6200;BME280;3133;43.214;27.906;2023-08-07T12:37:40;99979.50;;;29.56;53.87
6200;BME280;3133;43.214;27.906;2023-08-07T12:40:07;100023.97;;;29.81;50.56
6200;BME280;3133;43.214;27.906;2023-08-07T12:42:34;100010.69;;;29.89;49.63
6200;BME280;3133;43.214;27.906;2023-08-07T12:45:01;100006.97;;;29.80;49.84
6200;BME280;3133;43.214;27.906;2023-08-07T12:47:28;100013.63;;;29.86;52.18
6200;BME280;3133;43.214;27.906;2023-08-07T12:49:55;100019.47;;;29.91;53.20
6200;BME280;3133;43.214;27.906;2023-08-07T12:52:22;99978.88;;;29.73;55.08
6200;BME280;3133;43.214;27.906;2023-08-07T12:54:50;100031.41;;;29.98;56.72
6200;BME280;3133;43.214;27.906;2023-08-07T12:57:17;99878.47;;;29.23;58.32
6200;BME280;3133;43.214;27.906;2023-08-07T12:59:44;99963.72;;;29.72;56.97
6200;BME280;3133;43.214;27.906;2023-08-07T13:02:11;100026.44;;;29.93;57.13
6200;BME280;3133;43.214;27.906;2023-08-07T13:04:38;100009.13;;;29.86;59.01
6200;BME280;3133;43.214;27.906;2023-08-07T13:07:05;99918.81;;;29.33;56.01